Time;durP1;ratioP1;P1;durP2;ratioP2;P2;SDS_P1;SDS_P2;PMS_P1;PMS_P2;Temp;Humidity;BMP_temperature;BMP_pressure;BME280_temperature;BME280_humidity;BME280_pressure;Samples;Min_cycle;Max_cycle;Signal;HPM_P1;HPM_P2
2023/04/22 00:01:51;;;;;;;;;;;;;;;10.38;95.48;100181.19;5590250;31;34197;-71
2023/04/22 00:04:56;;;;;;;;;;;;;;;10.36;96.49;100175.22;5590273;31;34785;-71
2023/04/22 00:07:58;;;;;;;;;;;;;;;10.32;97.47;100181.03;5590309;31;34857;-71
2023/04/22 00:11:01;;;;;;;;;;;;;;;10.24;97.68;100181.06;5590308;31;34146;-71
2023/04/22 00:14:06;;;;;;;;;;;;;;;10.24;98.73;100175.78;5590153;31;34985;-71
2023/04/22 00:17:08;;;;;;;;;;;;;;;10.22;98.39;100183.06;5590295;31;34327;-71
2023/04/22 00:20:11;;;;;;;;;;;;;;;10.45;98.91;100176.03;5590098;31;34761;-71
2023/04/22 00:23:14;;;;;;;;;;;;;;;10.38;97.49;100186.50;5590143;31;33933;-71
2023/04/22 00:26:18;;;;;;;;;;;;;;;10.33;97.88;100183.53;5590103;31;34375;-71
2023/04/22 00:29:22;;;;;;;;;;;;;;;10.62;96.14;100177.62;5590126;31;34256;-71
2023/04/22 00:32:25;;;;;;;;;;;;;;;10.50;96.79;100178.19;5590110;31;34295;-70
2023/04/22 00:35:28;;;;;;;;;;;;;;;10.42;97.67;100173.72;5590376;31;34276;-71
2023/04/22 00:38:30;;;;;;;;;;;;;;;10.35;97.71;100176.25;5590081;31;34866;-71
2023/04/22 00:41:34;;;;;;;;;;;;;;;10.38;98.04;100180.38;5589828;31;34045;-69
2023/04/22 00:44:36;;;;;;;;;;;;;;;10.23;97.92;100176.75;5590149;31;34307;-71
2023/04/22 00:47:39;;;;;;;;;;;;;;;10.11;99.10;100178.09;5589772;31;34323;-71
2023/04/22 00:50:41;;;;;;;;;;;;;;;9.97;100.00;100180.44;5589842;31;34934;-70
2023/04/22 00:53:45;;;;;;;;;;;;;;;9.89;100.00;100177.81;5590136;31;34060;-70
2023/04/22 00:56:48;;;;;;;;;;;;;;;9.76;100.00;100179.31;5589901;31;34102;-70
2023/04/22 00:59:51;;;;;;;;;;;;;;;9.60;100.00;100175.69;5589759;31;34348;-70
2023/04/22 01:02:54;;;;;;;;;;;;;;;9.46;100.00;100184.28;5589792;31;34826;-70
2023/04/22 01:05:57;;;;;;;;;;;;;;;9.62;100.00;100196.72;5590110;31;34102;-70
2023/04/22 01:09:00;;;;;;;;;;;;;;;9.59;100.00;100197.88;5589710;31;34230;-70
2023/04/22 01:12:03;;;;;;;;;;;;;;;9.60;100.00;100191.56;5589617;31;34340;-70
2023/04/22 01:15:05;;;;;;;;;;;;;;;9.50;100.00;100192.72;5589573;31;34411;-70
2023/04/22 01:18:08;;;;;;;;;;;;;;;9.40;100.00;100197.34;5589689;31;34271;-71
2023/04/22 01:21:13;;;;;;;;;;;;;;;9.24;100.00;100195.53;5589577;31;34265;-70
2023/04/22 01:24:16;;;;;;;;;;;;;;;9.07;100.00;100196.50;5589536;31;34856;-70
2023/04/22 01:27:19;;;;;;;;;;;;;;;9.29;100.00;100197.69;5589878;31;34487;-70
2023/04/22 01:30:22;;;;;;;;;;;;;;;9.18;100.00;100196.19;5589493;31;34094;-70
2023/04/22 01:33:24;;;;;;;;;;;;;;;9.07;100.00;100196.50;5589396;31;34227;-70
2023/04/22 01:36:27;;;;;;;;;;;;;;;8.97;100.00;100201.09;5575798;31;34301;-70
2023/04/22 01:39:29;;;;;;;;;;;;;;;8.90;100.00;100205.41;5589491;31;34791;-70
2023/04/22 01:42:32;;;;;;;;;;;;;;;8.90;100.00;100202.75;5589297;31;34738;-70
2023/04/22 01:45:35;;;;;;;;;;;;;;;8.86;100.00;100209.34;5589097;31;35096;-70
2023/04/22 01:48:39;;;;;;;;;;;;;;;8.79;100.00;100209.16;5589393;31;34817;-70
2023/04/22 01:51:41;;;;;;;;;;;;;;;8.81;100.00;100209.81;5588360;31;34119;-70
2023/04/22 01:54:43;;;;;;;;;;;;;;;8.85;100.00;100212.97;5589152;31;34184;-70
2023/04/22 01:57:46;;;;;;;;;;;;;;;8.69;100.00;100209.28;5589122;31;34095;-71
2023/04/22 02:00:49;;;;;;;;;;;;;;;8.59;100.00;100213.03;5589042;31;34225;-71
2023/04/22 02:03:51;;;;;;;;;;;;;;;8.49;100.00;100207.06;5589251;31;34930;-71
2023/04/22 02:06:54;;;;;;;;;;;;;;;8.41;100.00;100204.38;5588982;31;34209;-71
2023/04/22 02:09:57;;;;;;;;;;;;;;;8.43;100.00;100199.75;5588971;31;34413;-71
2023/04/22 02:12:59;;;;;;;;;;;;;;;8.38;100.00;100194.94;5588954;31;34170;-71
2023/04/22 02:16:02;;;;;;;;;;;;;;;8.35;100.00;100195.25;5588739;31;34251;-71
2023/04/22 02:19:05;;;;;;;;;;;;;;;8.29;100.00;100199.34;5589177;31;34233;-71
2023/04/22 02:22:08;;;;;;;;;;;;;;;8.25;100.00;100199.81;5589044;31;34243;-70
2023/04/22 02:25:11;;;;;;;;;;;;;;;8.19;100.00;100200.41;5588626;31;34162;-70
2023/04/22 02:28:13;;;;;;;;;;;;;;;8.13;100.00;100193.16;5588511;31;34187;-70
2023/04/22 02:31:16;;;;;;;;;;;;;;;8.12;100.00;100200.25;5588571;31;34810;-70
2023/04/22 02:34:18;;;;;;;;;;;;;;;8.09;100.00;100200.53;5588270;31;34184;-70
2023/04/22 02:37:21;;;;;;;;;;;;;;;8.10;100.00;100202.19;5588377;31;34741;-70
2023/04/22 02:40:24;;;;;;;;;;;;;;;8.17;100.00;100195.31;5588314;31;34960;-70
2023/04/22 02:43:27;;;;;;;;;;;;;;;8.24;100.00;100200.78;5588201;31;34350;-71
2023/04/22 02:46:29;;;;;;;;;;;;;;;8.17;100.00;100194.47;5588276;31;35021;-70
2023/04/22 02:49:31;;;;;;;;;;;;;;;8.11;100.00;100190.66;5588221;31;34796;-70
2023/04/22 02:52:34;;;;;;;;;;;;;;;8.02;100.00;100188.12;5588143;31;34149;-70
2023/04/22 02:55:38;;;;;;;;;;;;;;;7.93;100.00;100200.44;5588358;31;34759;-70
2023/04/22 02:58:40;;;;;;;;;;;;;;;7.91;100.00;100188.38;5588041;31;34867;-70
2023/04/22 03:01:43;;;;;;;;;;;;;;;7.90;100.00;100195.47;5588022;31;34148;-70
2023/04/22 03:04:45;;;;;;;;;;;;;;;7.92;100.00;100190.03;5590210;31;34186;-70
2023/04/22 03:07:49;;;;;;;;;;;;;;;7.94;100.00;100196.00;5590944;31;34316;-70
2023/04/22 03:10:51;;;;;;;;;;;;;;;7.95;100.00;100193.19;5590863;31;34829;-70
2023/04/22 03:13:54;;;;;;;;;;;;;;;8.00;100.00;100201.47;5590673;31;34751;-70
2023/04/22 03:16:56;;;;;;;;;;;;;;;8.05;100.00;100201.00;5590696;31;34421;-70
2023/04/22 03:20:00;;;;;;;;;;;;;;;8.07;100.00;100199.03;5591060;31;34757;-70
2023/04/22 03:23:05;;;;;;;;;;;;;;;8.08;100.00;100187.50;5590670;31;34222;-70
2023/04/22 03:26:08;;;;;;;;;;;;;;;8.07;100.00;100199.87;5590934;31;34842;-71
2023/04/22 03:29:10;;;;;;;;;;;;;;;8.10;100.00;100204.00;5590723;31;34162;-71
2023/04/22 03:32:13;;;;;;;;;;;;;;;8.10;100.00;100204.84;5590608;31;34945;-70
2023/04/22 03:35:16;;;;;;;;;;;;;;;8.13;100.00;100207.16;5590926;31;34836;-71
2023/04/22 03:38:20;;;;;;;;;;;;;;;8.11;100.00;100201.22;5590946;31;34322;-70
2023/04/22 03:41:25;;;;;;;;;;;;;;;8.07;100.00;100207.81;5576689;31;34259;-71
2023/04/22 03:44:28;;;;;;;;;;;;;;;8.01;100.00;100208.41;5590495;31;34110;-71
2023/04/22 03:47:30;;;;;;;;;;;;;;;7.96;100.00;100215.16;5590344;31;34620;-71
2023/04/22 03:50:35;;;;;;;;;;;;;;;7.90;100.00;100213.94;5577278;31;34836;-71
2023/04/22 03:53:39;;;;;;;;;;;;;;;7.82;100.00;100208.62;5590582;31;34154;-71
2023/04/22 03:56:42;;;;;;;;;;;;;;;7.74;100.00;100206.75;5590343;31;34247;-71
2023/04/22 03:59:44;;;;;;;;;;;;;;;7.73;100.00;100213.00;5590410;31;34244;-71
2023/04/22 04:02:47;;;;;;;;;;;;;;;7.73;100.00;100215.66;5590414;31;34070;-71
2023/04/22 04:05:50;;;;;;;;;;;;;;;7.78;100.00;100217.84;5590698;31;34813;-71
2023/04/22 04:08:55;;;;;;;;;;;;;;;7.82;100.00;100214.72;5590258;31;34804;-71
2023/04/22 04:11:58;;;;;;;;;;;;;;;7.85;100.00;100217.06;5576475;31;34167;-71
2023/04/22 04:15:01;;;;;;;;;;;;;;;7.91;100.00;100215.59;5589994;31;34232;-71
2023/04/22 04:18:04;;;;;;;;;;;;;;;7.95;100.00;100219.59;5590169;31;35036;-71
2023/04/22 04:21:07;;;;;;;;;;;;;;;8.01;100.00;100228.72;5590313;31;34235;-71
2023/04/22 04:24:11;;;;;;;;;;;;;;;7.99;100.00;100228.88;5590534;31;34095;-71
2023/04/22 04:27:14;;;;;;;;;;;;;;;7.99;100.00;100230.69;5590175;31;34732;-71
2023/04/22 04:30:20;;;;;;;;;;;;;;;8.15;100.00;100236.91;5590512;31;34200;-70
2023/04/22 04:33:23;;;;;;;;;;;;;;;8.42;100.00;100238.59;5590097;31;34110;-71
2023/04/22 04:36:28;;;;;;;;;;;;;;;8.41;100.00;100236.09;5589959;31;34955;-70
2023/04/22 04:39:31;;;;;;;;;;;;;;;8.47;100.00;100240.78;5590455;31;34414;-71
2023/04/22 04:42:36;;;;;;;;;;;;;;;8.65;100.00;100247.63;5589834;31;35642;-71
2023/04/22 04:45:45;;;;;;;;;;;;;;;9.02;100.00;100243.78;5589781;31;34791;-70
2023/04/22 04:48:52;;;;;;;;;;;;;;;9.25;100.00;100257.22;5589680;31;34341;-71
2023/04/22 04:51:56;;;;;;;;;;;;;;;9.32;100.00;100251.13;5590243;31;34428;-70
2023/04/22 04:54:59;;;;;;;;;;;;;;;9.39;100.00;100259.28;5589849;31;34182;-70
2023/04/22 04:58:02;;;;;;;;;;;;;;;9.32;100.00;100250.31;5590284;31;34760;-70
2023/04/22 05:01:05;;;;;;;;;;;;;;;9.32;100.00;100255.59;5589866;31;34806;-71
2023/04/22 05:04:08;;;;;;;;;;;;;;;9.33;100.00;100257.25;5590040;31;34431;-70
2023/04/22 05:07:12;;;;;;;;;;;;;;;9.56;100.00;100258.28;5576420;31;34629;-70
2023/04/22 05:10:15;;;;;;;;;;;;;;;9.53;100.00;100256.81;5589983;31;34358;-71
2023/04/22 05:13:18;;;;;;;;;;;;;;;9.60;100.00;100265.75;5589718;31;34704;-71
2023/04/22 05:16:21;;;;;;;;;;;;;;;9.80;100.00;100270.72;5589431;31;34129;-71
2023/04/22 05:19:24;;;;;;;;;;;;;;;9.74;100.00;100263.41;5589515;31;34551;-71
2023/04/22 05:22:28;;;;;;;;;;;;;;;9.74;100.00;100266.06;5589698;31;34257;-71
2023/04/22 05:25:31;;;;;;;;;;;;;;;9.76;100.00;100264.94;5589558;31;34866;-70
2023/04/22 05:28:34;;;;;;;;;;;;;;;9.85;100.00;100268.41;5588588;31;33950;-70
2023/04/22 05:31:38;;;;;;;;;;;;;;;9.84;100.00;100261.44;5575902;31;34154;-71
2023/04/22 05:34:41;;;;;;;;;;;;;;;9.94;100.00;100262.09;5589422;31;34116;-71
2023/04/22 05:37:44;;;;;;;;;;;;;;;10.18;100.00;100264.75;5589352;31;34502;-71
2023/04/22 05:40:46;;;;;;;;;;;;;;;10.28;100.00;100270.72;5589617;31;34860;-71
2023/04/22 05:43:49;;;;;;;;;;;;;;;10.39;100.00;100270.38;5589167;31;34070;-71
2023/04/22 05:46:53;;;;;;;;;;;;;;;10.39;100.00;100267.72;5589204;31;34281;-71
2023/04/22 05:49:59;;;;;;;;;;;;;;;10.62;100.00;100275.78;5589346;31;34377;-70
2023/04/22 05:53:01;;;;;;;;;;;;;;;10.66;100.00;100282.38;5589143;31;34857;-70
2023/04/22 05:56:04;;;;;;;;;;;;;;;10.63;100.00;100273.94;5589274;31;34202;-70
2023/04/22 05:59:07;;;;;;;;;;;;;;;10.86;100.00;100274.84;5589046;31;34423;-70
2023/04/22 06:02:11;;;;;;;;;;;;;;;11.22;100.00;100278.69;5588924;31;34276;-71
2023/04/22 06:05:14;;;;;;;;;;;;;;;11.32;100.00;100281.94;5588833;31;34219;-71
2023/04/22 06:08:18;;;;;;;;;;;;;;;11.51;100.00;100285.97;5588843;31;34105;-71
2023/04/22 06:11:21;;;;;;;;;;;;;;;11.50;99.75;100280.81;5588698;31;34612;-71
2023/04/22 06:14:23;;;;;;;;;;;;;;;11.55;95.60;100283.78;5588863;31;34268;-71
2023/04/22 06:17:26;;;;;;;;;;;;;;;11.50;96.75;100278.16;5588699;31;34905;-70
2023/04/22 06:20:31;;;;;;;;;;;;;;;11.74;94.25;100286.00;5588611;31;34462;-72
2023/04/22 06:23:34;;;;;;;;;;;;;;;11.83;91.52;100286.75;5588628;31;34123;-70
2023/04/22 06:26:36;;;;;;;;;;;;;;;12.03;90.26;100290.59;5588476;31;34818;-70
2023/04/22 06:29:39;;;;;;;;;;;;;;;12.36;88.33;100288.44;5574907;31;34197;-70
2023/04/22 06:32:42;;;;;;;;;;;;;;;12.66;82.98;100294.63;5574552;31;32507;-70
2023/04/22 06:35:45;;;;;;;;;;;;;;;12.83;82.76;100294.25;5588197;31;34850;-71
2023/04/22 06:38:48;;;;;;;;;;;;;;;13.06;75.03;100289.66;5589962;31;34490;-70
2023/04/22 06:41:52;;;;;;;;;;;;;;;13.38;74.25;100290.25;5590879;31;34168;-71
2023/04/22 06:44:56;;;;;;;;;;;;;;;13.75;69.65;100287.38;5590884;31;34222;-71
2023/04/22 06:48:00;;;;;;;;;;;;;;;14.05;67.70;100296.06;5590143;31;34158;-71
2023/04/22 06:51:03;;;;;;;;;;;;;;;14.27;66.34;100294.19;5590752;31;34471;-71
2023/04/22 06:54:06;;;;;;;;;;;;;;;14.48;64.37;100285.31;5590751;31;34873;-71
2023/04/22 06:57:08;;;;;;;;;;;;;;;15.01;63.35;100286.44;5577328;31;34901;-71
2023/04/22 07:00:12;;;;;;;;;;;;;;;15.93;59.19;100286.72;5591165;31;34000;-71
2023/04/22 07:03:15;;;;;;;;;;;;;;;17.02;54.60;100285.19;5591301;31;34761;-71
2023/04/22 07:06:22;;;;;;;;;;;;;;;17.63;48.72;100293.56;5590568;31;32734;-71
2023/04/22 07:09:25;;;;;;;;;;;;;;;17.68;49.26;100287.56;5590549;31;34272;-71
2023/04/22 07:12:28;;;;;;;;;;;;;;;17.76;50.09;100285.44;5591160;31;34101;-71
2023/04/22 07:15:30;;;;;;;;;;;;;;;18.82;46.92;100293.44;5590762;31;34866;-72
2023/04/22 07:18:34;;;;;;;;;;;;;;;19.24;44.97;100296.25;5590631;31;34227;-71
2023/04/22 07:21:37;;;;;;;;;;;;;;;20.34;42.79;100298.37;5590348;31;34306;-71
2023/04/22 07:24:42;;;;;;;;;;;;;;;20.20;41.73;100298.78;5590653;31;34302;-72
2023/04/22 07:27:45;;;;;;;;;;;;;;;20.08;41.91;100298.78;5590541;31;35027;-73
2023/04/22 07:30:49;;;;;;;;;;;;;;;20.30;38.42;100301.75;5577207;31;34360;-72
2023/04/22 07:33:55;;;;;;;;;;;;;;;20.65;36.59;100301.78;5590378;31;34450;-72
2023/04/22 07:37:00;;;;;;;;;;;;;;;20.78;36.23;100298.84;5590558;31;34211;-72
2023/04/22 07:40:02;;;;;;;;;;;;;;;22.12;34.42;100297.44;5590898;31;34244;-73
2023/04/22 07:43:07;;;;;;;;;;;;;;;22.66;33.79;100308.53;5590310;31;34210;-72
2023/04/22 07:46:10;;;;;;;;;;;;;;;23.38;32.13;100307.34;5590234;31;34862;-72
2023/04/22 07:49:13;;;;;;;;;;;;;;;22.73;32.57;100306.50;5576113;31;34077;-72
2023/04/22 07:52:15;;;;;;;;;;;;;;;23.18;31.09;100298.19;5589811;31;34576;-72
2023/04/22 07:55:18;;;;;;;;;;;;;;;23.26;30.13;100300.44;5590443;31;34112;-73
2023/04/22 07:58:22;;;;;;;;;;;;;;;22.82;30.88;100299.59;5590456;31;34216;-71
2023/04/22 08:01:25;;;;;;;;;;;;;;;23.09;30.13;100294.28;5590264;31;33732;-72
2023/04/22 08:04:29;;;;;;;;;;;;;;;22.94;30.91;100294.91;5576816;31;33670;-72
2023/04/22 08:07:33;;;;;;;;;;;;;;;22.28;31.63;100290.38;5590321;31;34106;-71
2023/04/22 08:10:39;;;;;;;;;;;;;;;24.14;28.49;100289.16;5590323;31;33915;-72
2023/04/22 08:13:42;;;;;;;;;;;;;;;24.67;28.37;100295.53;5576368;31;34101;-72
2023/04/22 08:16:45;;;;;;;;;;;;;;;24.34;27.19;100298.56;5589923;31;34265;-72
2023/04/22 08:19:47;;;;;;;;;;;;;;;23.58;29.54;100292.41;5576468;31;32561;-72
2023/04/22 08:22:55;;;;;;;;;;;;;;;23.75;28.46;100285.84;5590027;31;35010;-73
2023/04/22 08:25:59;;;;;;;;;;;;;;;23.66;29.03;100290.09;5589986;31;34133;-73
2023/04/22 08:29:02;;;;;;;;;;;;;;;23.81;28.09;100294.84;5576232;31;34786;-72
2023/04/22 08:32:04;;;;;;;;;;;;;;;25.68;24.87;100290.56;5590443;31;33214;-72
2023/04/22 08:35:08;;;;;;;;;;;;;;;25.76;24.94;100292.72;5589961;31;34802;-73
2023/04/22 08:38:10;;;;;;;;;;;;;;;26.50;24.05;100296.84;5590200;31;34397;-73
2023/04/22 08:41:14;;;;;;;;;;;;;;;26.25;24.48;100295.78;5590032;31;34106;-73
2023/04/22 08:44:16;;;;;;;;;;;;;;;27.11;24.17;100292.88;5590182;31;34869;-72
2023/04/22 08:47:19;;;;;;;;;;;;;;;25.27;25.53;100297.72;5589545;31;34410;-73
2023/04/22 08:50:25;;;;;;;;;;;;;;;26.71;23.99;100295.72;5589732;31;34869;-72
2023/04/22 08:53:28;;;;;;;;;;;;;;;26.14;24.72;100293.31;5589664;31;35062;-73
2023/04/22 08:56:30;;;;;;;;;;;;;;;26.72;24.95;100297.34;5589400;31;34797;-72
2023/04/22 08:59:34;;;;;;;;;;;;;;;26.50;24.82;100291.37;5576107;31;34715;-73
2023/04/22 09:02:37;;;;;;;;;;;;;;;27.50;22.38;100284.81;5589470;31;34179;-73
2023/04/22 09:05:41;;;;;;;;;;;;;;;27.17;22.57;100288.22;5589811;31;34713;-73
2023/04/22 09:08:45;;;;;;;;;;;;;;;28.22;21.51;100283.22;5576082;31;34130;-73
2023/04/22 09:11:49;;;;;;;;;;;;;;;27.56;21.93;100289.13;5589573;31;34796;-73
2023/04/22 09:14:53;;;;;;;;;;;;;;;27.55;21.95;100283.94;5590042;31;34084;-73
2023/04/22 09:17:57;;;;;;;;;;;;;;;28.53;21.30;100281.81;5589873;31;34812;-73
2023/04/22 09:20:59;;;;;;;;;;;;;;;29.36;21.25;100283.34;5589522;31;34411;-72
2023/04/22 09:24:05;;;;;;;;;;;;;;;28.18;21.56;100279.41;5589253;31;34525;-72
2023/04/22 09:27:10;;;;;;;;;;;;;;;26.79;22.85;100282.34;5589461;31;34783;-72
2023/04/22 09:30:13;;;;;;;;;;;;;;;26.58;23.55;100280.75;5589406;31;34408;-72
2023/04/22 09:33:16;;;;;;;;;;;;;;;27.27;22.49;100274.56;5589636;31;34300;-72
2023/04/22 09:36:22;;;;;;;;;;;;;;;27.75;21.80;100274.84;5588785;31;35176;-72
2023/04/22 09:39:25;;;;;;;;;;;;;;;28.78;21.42;100278.03;5588995;31;34997;-72
2023/04/22 09:42:28;;;;;;;;;;;;;;;26.80;22.54;100277.72;5589265;31;34409;-73
2023/04/22 09:45:31;;;;;;;;;;;;;;;27.56;22.55;100267.34;5589048;31;34429;-73
2023/04/22 09:48:41;;;;;;;;;;;;;;;28.49;21.19;100269.84;5589486;31;34336;-72
2023/04/22 09:51:43;;;;;;;;;;;;;;;29.09;20.89;100253.09;5575669;31;34697;-74
2023/04/22 09:54:53;;;;;;;;;;;;;;;30.39;19.13;100262.31;5588876;31;35455;-74
2023/04/22 09:57:56;;;;;;;;;;;;;;;29.48;19.84;100256.41;5588959;31;34226;-73
2023/04/22 10:00:59;;;;;;;;;;;;;;;26.43;23.45;100245.44;5589030;31;34812;-74
2023/04/22 10:04:01;;;;;;;;;;;;;;;25.40;24.86;100245.66;5588754;31;34157;-75
2023/04/22 10:07:04;;;;;;;;;;;;;;;24.25;25.49;100230.47;5589233;31;34269;-73
2023/04/22 10:10:09;;;;;;;;;;;;;;;23.38;26.52;100228.03;5589167;31;33392;-72
2023/04/22 10:13:12;;;;;;;;;;;;;;;22.71;28.34;100225.62;5589316;31;34455;-72
2023/04/22 10:16:17;;;;;;;;;;;;;;;22.43;27.98;100228.44;5591560;31;33054;-73
2023/04/22 10:19:22;;;;;;;;;;;;;;;22.31;27.91;100225.03;5577838;31;34192;-71
2023/04/22 10:22:26;;;;;;;;;;;;;;;20.80;30.93;100227.44;5590802;31;34279;-72
2023/04/22 10:25:28;;;;;;;;;;;;;;;20.60;30.86;100218.94;5590979;31;34418;-73
2023/04/22 10:28:31;;;;;;;;;;;;;;;21.04;30.26;100214.72;5591100;31;34149;-73
2023/04/22 10:31:36;;;;;;;;;;;;;;;21.53;30.53;100225.91;5591044;31;34915;-72
2023/04/22 10:34:39;;;;;;;;;;;;;;;22.17;29.00;100219.19;5577186;31;34168;-71
2023/04/22 10:37:44;;;;;;;;;;;;;;;23.78;27.04;100211.34;5591031;31;34732;-72
2023/04/22 10:40:59;;;;;;;;;;;;;;;26.18;24.63;100205.47;5591005;31;34859;-73
2023/04/22 10:44:06;;;;;;;;;;;;;;;28.87;21.76;100216.22;5590866;31;34358;-72
2023/04/22 10:47:09;;;;;;;;;;;;;;;30.15;20.54;100205.81;5590670;31;34186;-73
2023/04/22 10:50:13;;;;;;;;;;;;;;;31.24;18.33;100207.72;5591072;31;34160;-73
2023/04/22 10:53:35;;;;;;;;;;;;;;;30.90;18.67;100210.09;5591050;31;34114;-72
2023/04/22 10:56:56;;;;;;;;;;;;;;;30.22;19.46;100202.66;5590565;31;34371;-72
2023/04/22 11:00:00;;;;;;;;;;;;;;;32.14;18.49;100203.94;5590698;31;34865;-73
2023/04/22 11:03:11;;;;;;;;;;;;;;;32.79;17.31;100211.47;5590849;31;34201;-72
2023/04/22 11:06:21;;;;;;;;;;;;;;;35.34;16.13;100206.06;5590865;31;34174;-71
2023/04/22 11:09:23;;;;;;;;;;;;;;;35.44;16.49;100204.84;5590474;31;34172;-73
2023/04/22 11:12:44;;;;;;;;;;;;;;;29.65;19.93;100195.72;5576994;31;34922;-72
2023/04/22 11:16:06;;;;;;;;;;;;;;;28.62;20.85;100202.00;5590762;31;34224;-73
2023/04/22 11:19:09;;;;;;;;;;;;;;;28.23;21.40;100200.25;5589633;31;33979;-73
2023/04/22 11:22:12;;;;;;;;;;;;;;;28.04;21.33;100194.69;5590652;31;34736;-73
2023/04/22 11:25:15;;;;;;;;;;;;;;;28.38;20.90;100183.72;5589690;31;34826;-73
2023/04/22 11:28:21;;;;;;;;;;;;;;;25.78;23.64;100184.59;5590473;31;34321;-73
2023/04/22 11:31:25;;;;;;;;;;;;;;;27.47;22.34;100186.44;5590440;31;34265;-73
2023/04/22 11:34:28;;;;;;;;;;;;;;;26.20;22.79;100186.16;5590781;31;34125;-73
2023/04/22 11:37:38;;;;;;;;;;;;;;;25.95;23.11;100184.28;5576969;31;33687;-73
2023/04/22 11:40:51;;;;;;;;;;;;;;;24.48;25.34;100188.56;5590349;31;34205;-73
2023/04/22 11:43:54;;;;;;;;;;;;;;;25.00;25.12;100181.19;5576685;31;34775;-73
2023/04/22 11:47:16;;;;;;;;;;;;;;;23.36;26.15;100176.03;5590250;31;34042;-72
2023/04/22 11:50:26;;;;;;;;;;;;;;;26.48;23.26;100185.56;5590272;31;34169;-73
2023/04/22 11:53:29;;;;;;;;;;;;;;;29.80;20.18;100184.53;5576336;31;34252;-72
2023/04/22 11:56:35;;;;;;;;;;;;;;;27.53;21.54;100180.72;5590144;31;34867;-72
2023/04/22 11:59:38;;;;;;;;;;;;;;;24.85;23.54;100183.00;5590148;31;34343;-72
2023/04/22 12:02:44;;;;;;;;;;;;;;;23.49;25.40;100180.22;5589789;31;34924;-72
2023/04/22 12:05:53;;;;;;;;;;;;;;;25.25;23.71;100179.63;5589975;31;34418;-73
2023/04/22 12:08:59;;;;;;;;;;;;;;;25.79;23.09;100182.69;5590402;31;34100;-73
2023/04/22 12:12:04;;;;;;;;;;;;;;;26.88;22.16;100181.88;5590500;31;34856;-73
2023/04/22 12:15:13;;;;;;;;;;;;;;;28.36;20.03;100175.03;5589994;31;34211;-73
2023/04/22 12:18:32;;;;;;;;;;;;;;;31.63;17.68;100184.38;5589981;31;34261;-74
2023/04/22 12:21:35;;;;;;;;;;;;;;;31.82;17.72;100177.56;5590115;31;34080;-73
2023/04/22 12:24:43;;;;;;;;;;;;;;;31.60;17.47;100168.53;5589660;31;33914;-73
2023/04/22 12:27:46;;;;;;;;;;;;;;;33.49;15.93;100167.25;5589831;31;34831;-71
2023/04/22 12:30:48;;;;;;;;;;;;;;;35.45;14.66;100165.03;5589968;31;34572;-72
2023/04/22 12:33:52;;;;;;;;;;;;;;;35.45;14.32;100173.31;5590126;31;34195;-74
2023/04/22 12:36:55;;;;;;;;;;;;;;;35.02;14.73;100168.12;5576043;31;34168;-71
2023/04/22 12:39:59;;;;;;;;;;;;;;;34.64;14.60;100169.00;5590043;31;34228;-72
2023/04/22 12:43:04;;;;;;;;;;;;;;;34.93;14.31;100164.62;5589946;31;34800;-73
2023/04/22 12:46:12;;;;;;;;;;;;;;;31.64;16.87;100158.56;5590049;31;34722;-72
2023/04/22 12:49:21;;;;;;;;;;;;;;;29.33;18.69;100158.25;5589641;31;34270;-74
2023/04/22 12:52:25;;;;;;;;;;;;;;;27.40;20.45;100143.16;5589831;31;34955;-73
2023/04/22 12:55:30;;;;;;;;;;;;;;;26.68;22.41;100139.22;5576278;31;34182;-72
2023/04/22 12:58:33;;;;;;;;;;;;;;;27.24;21.62;100142.47;5590037;31;34230;-72
2023/04/22 13:01:51;;;;;;;;;;;;;;;28.44;20.68;100146.28;5589523;31;34625;-72
2023/04/22 13:04:55;;;;;;;;;;;;;;;28.78;19.23;100140.69;5576148;31;34203;-71
2023/04/22 13:08:02;;;;;;;;;;;;;;;27.20;20.52;100130.53;5589574;31;34782;-71
2023/04/22 13:11:09;;;;;;;;;;;;;;;25.71;21.76;100137.84;5589848;31;34611;-73
2023/04/22 13:14:13;;;;;;;;;;;;;;;25.76;21.35;100128.84;5589435;31;34194;-73
2023/04/22 13:17:20;;;;;;;;;;;;;;;25.12;23.86;100130.19;5589004;31;34736;-72
2023/04/22 13:20:25;;;;;;;;;;;;;;;24.90;23.28;100128.78;5575999;31;34832;-72
2023/04/22 13:23:29;;;;;;;;;;;;;;;24.36;23.80;100131.00;5589589;31;34168;-72
2023/04/22 13:26:32;;;;;;;;;;;;;;;23.84;25.42;100120.94;5589528;31;34151;-71
2023/04/22 13:29:35;;;;;;;;;;;;;;;24.16;24.69;100120.84;5589252;31;34264;-71
2023/04/22 13:32:38;;;;;;;;;;;;;;;23.97;24.41;100120.47;5589191;31;34484;-73
2023/04/22 13:35:44;;;;;;;;;;;;;;;23.20;26.19;100120.09;5589160;31;34264;-72
2023/04/22 13:38:47;;;;;;;;;;;;;;;23.51;25.02;100126.62;5589270;31;34036;-71
2023/04/22 13:41:50;;;;;;;;;;;;;;;23.26;25.53;100119.91;5575399;31;34323;-73
2023/04/22 13:44:52;;;;;;;;;;;;;;;23.89;25.43;100114.72;5575646;31;34946;-71
2023/04/22 13:47:55;;;;;;;;;;;;;;;23.21;26.50;100114.44;5588461;31;34236;-71
2023/04/22 13:50:59;;;;;;;;;;;;;;;22.62;26.25;100108.13;5589211;31;34249;-71
2023/04/22 13:54:02;;;;;;;;;;;;;;;22.68;26.58;100104.41;5589074;31;34762;-71
2023/04/22 13:57:05;;;;;;;;;;;;;;;22.71;26.67;100105.81;5589249;31;34106;-72
2023/04/22 14:00:08;;;;;;;;;;;;;;;23.21;26.19;100108.22;5575705;31;34124;-72
2023/04/22 14:03:13;;;;;;;;;;;;;;;23.92;25.55;100106.06;5588843;31;34373;-72
2023/04/22 14:06:17;;;;;;;;;;;;;;;24.73;25.27;100103.75;5589401;31;34043;-72
2023/04/22 14:09:21;;;;;;;;;;;;;;;25.66;23.73;100107.16;5588822;31;34840;-72
2023/04/22 14:12:26;;;;;;;;;;;;;;;24.74;24.48;100105.41;5575306;31;34543;-72
2023/04/22 14:15:31;;;;;;;;;;;;;;;24.55;24.49;100099.62;5588598;31;34255;-72
2023/04/22 14:18:35;;;;;;;;;;;;;;;25.07;23.33;100104.94;5588826;31;34297;-72
2023/04/22 14:21:39;;;;;;;;;;;;;;;24.58;25.17;100099.91;5574556;31;32630;-72
2023/04/22 14:24:43;;;;;;;;;;;;;;;23.88;25.38;100100.34;5588779;31;34053;-72
2023/04/22 14:27:47;;;;;;;;;;;;;;;23.74;25.33;100097.28;5574819;31;32607;-71
2023/04/22 14:30:50;;;;;;;;;;;;;;;23.64;25.54;100097.22;5561807;31;34845;-71
2023/04/22 14:33:57;;;;;;;;;;;;;;;23.13;26.27;100097.87;5588248;31;34298;-71
2023/04/22 14:37:03;;;;;;;;;;;;;;;23.18;26.51;100096.03;5588350;31;34221;-71
2023/04/22 14:40:05;;;;;;;;;;;;;;;23.59;26.27;100102.59;5574498;31;34725;-71
2023/04/22 14:43:08;;;;;;;;;;;;;;;23.17;26.07;100086.25;5588459;31;34749;-71
2023/04/22 14:46:11;;;;;;;;;;;;;;;22.74;26.42;100091.78;5580304;31;258060;-71
2023/04/22 14:49:14;;;;;;;;;;;;;;;23.10;26.39;100098.34;5574719;31;34174;-71
2023/04/22 14:52:16;;;;;;;;;;;;;;;23.48;27.83;100092.75;5588415;31;34754;-72
2023/04/22 14:55:19;;;;;;;;;;;;;;;22.93;27.23;100085.78;5588511;31;34129;-71
2023/04/22 14:58:29;;;;;;;;;;;;;;;22.95;26.35;100090.91;5587943;31;34830;-72
2023/04/22 15:01:35;;;;;;;;;;;;;;;23.52;26.89;100093.06;5590965;31;34329;-71
2023/04/22 15:04:40;;;;;;;;;;;;;;;23.38;26.55;100087.25;5590483;31;34609;-71
2023/04/22 15:07:42;;;;;;;;;;;;;;;23.20;26.62;100085.75;5590756;31;34273;-71
2023/04/22 15:10:45;;;;;;;;;;;;;;;23.23;26.34;100081.72;5590856;31;34187;-71
2023/04/22 15:13:48;;;;;;;;;;;;;;;22.91;26.48;100084.37;5590621;31;34198;-71
2023/04/22 15:16:51;;;;;;;;;;;;;;;22.94;27.36;100082.00;5590421;31;34182;-71
2023/04/22 15:19:56;;;;;;;;;;;;;;;22.93;27.96;100091.19;5590552;31;34118;-71
2023/04/22 15:22:59;;;;;;;;;;;;;;;22.89;27.46;100083.84;5590659;31;34158;-70
2023/04/22 15:26:03;;;;;;;;;;;;;;;23.02;27.39;100091.53;5577056;31;34897;-70
2023/04/22 15:29:06;;;;;;;;;;;;;;;23.11;27.93;100086.47;5576926;31;34855;-71
2023/04/22 15:32:10;;;;;;;;;;;;;;;22.44;27.93;100081.41;5590217;31;34277;-71
2023/04/22 15:35:13;;;;;;;;;;;;;;;21.99;28.85;100081.66;5590107;31;34452;-71
2023/04/22 15:38:16;;;;;;;;;;;;;;;22.10;29.60;100084.25;5576710;31;34192;-70
2023/04/22 15:41:19;;;;;;;;;;;;;;;22.17;29.03;100078.66;5590373;31;34333;-72
2023/04/22 15:44:22;;;;;;;;;;;;;;;22.03;29.64;100083.59;5590362;31;34159;-70